Time;durP1;ratioP1;P1;durP2;ratioP2;P2;SDS_P1;SDS_P2;PMS_P1;PMS_P2;Temp;Humidity;BMP_temperature;BMP_pressure;BME280_temperature;BME280_humidity;BME280_pressure;Samples;Min_cycle;Max_cycle;Signal;HPM_P1;HPM_P2
2022/05/28 00:00:13;;;;;;;6.95;5.32;;;21.50;51.20;;;;;;6197421;28;20030;-74
2022/05/28 00:03:13;;;;;;;6.40;5.07;;;21.50;51.20;;;;;;6197059;28;20704;-74
2022/05/28 00:06:19;;;;;;;5.97;4.85;;;21.50;51.30;;;;;;6179877;28;20053;-74
2022/05/28 00:09:20;;;;;;;6.20;4.65;;;21.50;51.20;;;;;;6191665;28;20030;-74
2022/05/28 00:12:28;;;;;;;5.90;4.57;;;21.50;51.20;;;;;;6179693;28;20027;-75
2022/05/28 00:15:29;;;;;;;6.03;4.65;;;21.50;51.20;;;;;;6196971;28;20066;-74
2022/05/28 00:18:31;;;;;;;5.70;4.55;;;21.40;51.20;;;;;;6196854;28;20018;-74
2022/05/28 00:21:32;;;;;;;6.22;4.55;;;21.50;51.30;;;;;;6196997;28;20030;-74
2022/05/28 00:24:32;;;;;;;5.25;4.20;;;21.50;51.30;;;;;;6196661;28;20038;-74
2022/05/28 00:27:33;;;;;;;5.45;4.28;;;21.50;51.20;;;;;;6196589;28;20673;-74
2022/05/28 00:30:34;;;;;;;5.82;4.50;;;21.50;51.20;;;;;;6192849;28;20398;-74
2022/05/28 00:33:35;;;;;;;6.00;4.55;;;21.50;51.30;;;;;;6172216;28;20057;-74
2022/05/28 00:36:35;;;;;;;5.45;4.43;;;21.50;51.30;;;;;;6172062;28;20062;-74
2022/05/28 00:39:36;;;;;;;6.65;4.63;;;21.40;51.20;;;;;;6171104;28;20023;-75
2022/05/28 00:42:37;;;;;;;6.07;4.45;;;21.50;51.30;;;;;;6172099;28;20030;-74
2022/05/28 00:45:38;;;;;;;6.40;4.38;;;21.50;51.30;;;;;;6172336;28;20023;-74
2022/05/28 00:48:44;;;;;;;5.20;4.00;;;21.50;51.30;;;;;;6154796;28;20441;-74
2022/05/28 00:51:48;;;;;;;5.90;4.65;;;21.50;51.30;;;;;;6172509;28;20154;-74
2022/05/28 00:54:49;;;;;;;5.45;4.03;;;21.50;51.30;;;;;;6196192;28;20157;-75
2022/05/28 00:57:50;;;;;;;5.10;4.32;;;21.50;51.40;;;;;;6195659;28;20018;-75
2022/05/28 01:00:51;;;;;;;5.53;4.35;;;21.50;51.40;;;;;;6183756;28;20034;-75
2022/05/28 01:04:10;;;;;;;5.50;4.32;;;21.50;51.40;;;;;;6170266;28;20105;-75
2022/05/28 01:07:17;;;;;;;6.35;4.47;;;21.50;51.40;;;;;;6171149;28;20081;-74
2022/05/28 01:10:26;;;;;;;6.68;4.70;;;21.50;51.30;;;;;;6171180;28;20026;-74
2022/05/28 01:13:33;;;;;;;6.35;4.50;;;21.50;51.30;;;;;;6154413;28;20500;-74
2022/05/28 01:16:40;;;;;;;5.28;4.18;;;21.50;51.30;;;;;;6169000;28;20110;-74
2022/05/28 01:19:40;;;;;;;4.65;3.80;;;21.40;51.30;;;;;;6171804;28;20027;-74
2022/05/28 01:22:49;;;;;;;5.93;4.22;;;21.40;51.30;;;;;;6154444;28;20035;-74
2022/05/28 01:25:59;;;;;;;5.20;4.15;;;21.50;51.40;;;;;;6168884;28;20118;-74
2022/05/28 01:29:10;;;;;;;5.10;4.05;;;21.50;51.40;;;;;;6171597;28;20021;-74
2022/05/28 01:32:12;;;;;;;4.63;3.60;;;21.40;51.30;;;;;;6180713;28;20162;-74
2022/05/28 01:35:16;;;;;;;5.10;4.10;;;21.40;51.30;;;;;;6178156;28;20112;-75
2022/05/28 01:38:18;;;;;;;5.40;4.13;;;21.40;51.30;;;;;;6195346;28;20042;-74
2022/05/28 01:41:19;;;;;;;4.97;4.00;;;21.40;51.30;;;;;;6195316;28;20023;-74
2022/05/28 01:44:21;;;;;;;6.35;4.35;;;21.40;51.30;;;;;;6195548;28;20035;-74
2022/05/28 01:47:23;;;;;;;5.10;3.90;;;21.50;51.40;;;;;;6195608;28;20477;-75
2022/05/28 01:50:26;;;;;;;5.90;4.28;;;21.40;51.30;;;;;;6195547;28;20018;-74
2022/05/28 01:56:50;;;;;;;5.68;4.05;;;21.40;51.30;;;;;;6194760;28;20026;-75
2022/05/28 01:59:51;;;;;;;4.88;3.90;;;21.40;51.40;;;;;;6176981;28;20661;-75
2022/05/28 02:02:53;;;;;;;5.22;4.07;;;21.40;51.30;;;;;;6194761;28;20038;-74
2022/05/28 02:05:54;;;;;;;5.18;3.78;;;21.40;51.40;;;;;;6191701;28;20172;-75
2022/05/28 02:08:55;;;;;;;5.63;4.28;;;21.40;51.40;;;;;;6196878;28;20023;-74
2022/05/28 02:12:07;;;;;;;4.82;3.92;;;21.40;51.40;;;;;;6199664;28;20029;-74
2022/05/28 02:15:29;;;;;;;5.60;4.15;;;21.40;51.40;;;;;;6199677;28;20679;-74
2022/05/28 02:18:52;;;;;;;4.22;3.47;;;21.40;51.40;;;;;;6182689;28;20018;-74
2022/05/28 02:22:02;;;;;;;4.57;3.72;;;21.40;51.40;;;;;;6194058;28;20118;-74
2022/05/28 02:25:11;;;;;;;5.70;4.20;;;21.40;51.40;;;;;;6169606;28;20046;-74
2022/05/28 02:28:12;;;;;;;5.22;3.90;;;21.40;51.40;;;;;;6155084;28;20054;-74
2022/05/28 02:31:16;;;;;;;4.22;3.25;;;21.40;51.40;;;;;;6175002;28;20195;-74
2022/05/28 02:34:19;;;;;;;4.97;3.72;;;21.40;51.40;;;;;;6171642;28;20456;-74
2022/05/28 02:37:22;;;;;;;4.70;3.67;;;21.40;51.40;;;;;;6175319;28;20030;-74
2022/05/28 02:40:23;;;;;;;5.45;3.70;;;21.40;51.40;;;;;;6174817;28;20736;-75
2022/05/28 02:43:23;;;;;;;5.25;4.05;;;21.40;51.40;;;;;;6174962;28;20045;-75
2022/05/28 02:46:24;;;;;;;4.03;3.28;;;21.40;51.40;;;;;;6183056;28;20030;-74
2022/05/28 02:49:25;;;;;;;5.22;3.88;;;21.40;51.40;;;;;;6198857;28;20026;-74
2022/05/28 02:52:26;;;;;;;4.32;3.67;;;21.40;51.50;;;;;;6198570;28;20027;-74
2022/05/28 02:55:26;;;;;;;4.60;3.60;;;21.40;51.40;;;;;;6198792;28;20444;-75
2022/05/28 02:58:27;;;;;;;4.88;3.72;;;21.40;51.40;;;;;;6181452;28;20431;-74
2022/05/28 03:01:33;;;;;;;6.28;4.00;;;21.40;51.50;;;;;;6159176;28;20022;-74
2022/05/28 03:04:33;;;;;;;4.75;3.85;;;21.40;51.40;;;;;;6174175;28;20385;-74
2022/05/28 03:07:34;;;;;;;4.47;3.60;;;21.40;51.40;;;;;;6174652;28;20077;-74
2022/05/28 03:10:34;;;;;;;4.63;3.50;;;21.40;51.40;;;;;;6174206;28;20058;-74
2022/05/28 03:13:36;;;;;;;3.92;3.28;;;21.40;51.40;;;;;;6174297;28;20481;-74
2022/05/28 03:16:37;;;;;;;3.83;3.22;;;21.40;51.50;;;;;;6174278;28;20027;-74
2022/05/28 03:19:38;;;;;;;5.35;3.92;;;21.40;51.50;;;;;;6173673;28;20034;-74
2022/05/28 03:22:38;;;;;;;4.50;3.90;;;21.40;51.50;;;;;;6173282;28;20485;-74
2022/05/28 03:25:38;;;;;;;4.85;4.00;;;21.40;51.50;;;;;;6174186;28;20043;-74
2022/05/28 03:28:39;;;;;;;4.95;3.88;;;21.40;51.50;;;;;;6173732;28;20110;-73
2022/05/28 03:31:40;;;;;;;4.28;3.63;;;21.40;51.50;;;;;;6185758;28;20045;-74
2022/05/28 03:34:41;;;;;;;4.53;3.25;;;21.40;51.50;;;;;;6164780;28;20027;-74
2022/05/28 03:37:41;;;;;;;4.60;3.60;;;21.40;51.50;;;;;;6173401;28;20027;-74
2022/05/28 03:40:41;;;;;;;5.50;3.65;;;21.40;51.50;;;;;;6173531;28;20027;-74
2022/05/28 03:43:42;;;;;;;3.90;3.05;;;21.40;52.20;;;;;;6155885;28;20057;-74
2022/05/28 03:46:43;;;;;;;5.28;3.90;;;21.40;51.50;;;;;;6156020;28;20019;-74
2022/05/28 03:49:44;;;;;;;4.20;3.40;;;21.40;51.50;;;;;;6172909;28;20033;-74
2022/05/28 03:52:45;;;;;;;4.47;3.33;;;21.40;51.50;;;;;;6181723;28;20022;-74
2022/05/28 03:55:46;;;;;;;4.55;3.78;;;21.40;51.60;;;;;;6197403;28;20035;-74
2022/05/28 03:58:47;;;;;;;4.18;3.03;;;21.40;51.50;;;;;;6197504;28;20024;-74
2022/05/28 04:01:47;;;;;;;4.43;3.17;;;21.40;51.60;;;;;;6196995;28;20472;-74
2022/05/28 04:04:48;;;;;;;4.47;3.78;;;21.40;51.50;;;;;;6179656;28;20116;-74
2022/05/28 04:07:49;;;;;;;4.72;3.50;;;21.40;51.60;;;;;;6196956;28;20034;-74
2022/05/28 04:10:49;;;;;;;4.72;3.50;;;21.40;51.60;;;;;;6196694;28;20570;-74
2022/05/28 04:13:50;;;;;;;4.63;3.45;;;21.40;51.60;;;;;;6179276;28;20026;-74
2022/05/28 04:16:50;;;;;;;3.83;3.05;;;21.40;51.60;;;;;;6196892;28;20539;-74
2022/05/28 04:19:51;;;;;;;3.75;3.05;;;21.40;51.60;;;;;;6196825;28;20062;-74
2022/05/28 04:22:52;;;;;;;4.40;3.42;;;21.40;51.60;;;;;;6196659;28;20133;-75
2022/05/28 04:25:52;;;;;;;4.13;3.40;;;21.40;51.60;;;;;;6196419;28;20078;-74
2022/05/28 04:28:53;;;;;;;3.90;3.10;;;21.40;51.60;;;;;;6196278;28;20065;-74
2022/05/28 04:31:53;;;;;;;3.97;3.00;;;21.40;51.60;;;;;;6181181;28;20054;-74
2022/05/28 04:34:54;;;;;;;4.13;3.10;;;21.40;51.70;;;;;;6172135;28;20031;-74
2022/05/28 04:37:54;;;;;;;4.22;3.40;;;21.40;51.60;;;;;;6172486;28;20578;-74
2022/05/28 04:40:55;;;;;;;4.10;3.22;;;21.40;51.60;;;;;;6172156;28;20101;-74
2022/05/28 04:43:55;;;;;;;4.70;3.47;;;21.40;51.70;;;;;;6171894;28;20038;-74
2022/05/28 04:46:56;;;;;;;3.85;3.13;;;21.40;51.60;;;;;;6172198;28;20478;-74
2022/05/28 04:49:56;;;;;;;3.88;3.25;;;21.40;51.60;;;;;;6190559;28;20057;-74
2022/05/28 04:52:57;;;;;;;5.03;3.80;;;21.40;51.60;;;;;;6195964;28;20491;-74
2022/05/28 04:55:57;;;;;;;3.78;3.15;;;21.40;51.70;;;;;;6195862;28;20023;-74
2022/05/28 04:58:59;;;;;;;4.32;3.28;;;21.40;51.60;;;;;;6196097;28;20488;-74
2022/05/28 05:01:59;;;;;;;4.65;3.30;;;21.40;51.60;;;;;;6185578;28;20428;-74
2022/05/28 05:05:00;;;;;;;4.20;3.20;;;21.40;51.70;;;;;;6154291;28;20062;-74
2022/05/28 05:08:00;;;;;;;4.05;3.30;;;21.40;51.70;;;;;;6170383;28;20106;-74
2022/05/28 05:11:01;;;;;;;3.53;3.05;;;21.40;51.70;;;;;;6171813;28;20031;-74
2022/05/28 05:14:01;;;;;;;3.58;3.05;;;21.40;51.70;;;;;;6171307;28;20023;-74
2022/05/28 05:17:02;;;;;;;4.13;3.00;;;21.40;51.70;;;;;;6171461;28;20444;-74
2022/05/28 05:20:03;;;;;;;4.80;3.38;;;21.40;51.70;;;;;;6154150;28;20082;-74
2022/05/28 05:23:04;;;;;;;4.57;3.55;;;21.40;51.70;;;;;;6171535;28;20038;-74
2022/05/28 05:26:09;;;;;;;4.28;3.03;;;21.40;51.70;;;;;;6171338;28;20030;-74
2022/05/28 05:29:09;;;;;;;;;;;21.40;51.70;;;;;;6171606;28;20034;-74
2022/05/28 05:32:10;;;;;;;3.60;3.00;;;21.40;51.70;;;;;;6186116;28;19917;-74
2022/05/28 05:35:11;;;;;;;4.82;3.63;;;21.40;52.40;;;;;;6195719;28;20088;-74
2022/05/28 05:38:11;;;;;;;4.32;3.22;;;21.40;51.70;;;;;;6178163;28;20029;-74
2022/05/28 05:41:12;;;;;;;4.57;3.30;;;21.40;51.80;;;;;;6195522;28;20034;-74
2022/05/28 05:44:13;;;;;;;3.95;3.20;;;21.40;51.70;;;;;;6197692;28;20045;-75
2022/05/28 05:47:13;;;;;;;4.30;3.15;;;21.40;51.70;;;;;;6200408;28;20134;-74
2022/05/28 05:50:14;;;;;;;3.45;2.80;;;21.40;51.70;;;;;;6193111;28;20034;-74
2022/05/28 05:53:15;;;;;;;3.65;2.97;;;21.40;51.70;;;;;;6188470;28;20031;-74
2022/05/28 05:56:16;;;;;;;3.92;2.88;;;21.40;51.70;;;;;;6200003;28;20093;-74
2022/05/28 05:59:17;;;;;;;3.90;2.85;;;21.40;51.70;;;;;;6200043;28;20390;-74
2022/05/28 06:02:17;;;;;;;3.92;3.08;;;21.40;51.80;;;;;;6183399;28;20496;-74
2022/05/28 06:05:18;;;;;;;3.83;3.00;;;21.40;51.70;;;;;;6175585;28;20035;-74
2022/05/28 06:08:18;;;;;;;3.60;2.85;;;21.40;51.70;;;;;;6157914;28;20027;-74
2022/05/28 06:11:19;;;;;;;3.65;2.92;;;21.40;51.70;;;;;;6174950;28;20054;-74
2022/05/28 06:14:19;;;;;;;3.92;3.20;;;21.40;51.70;;;;;;6157136;28;20116;-74
2022/05/28 06:17:20;;;;;;;4.18;3.30;;;21.40;51.70;;;;;;6174280;28;20031;-74
2022/05/28 06:20:20;;;;;;;3.60;2.85;;;21.40;51.70;;;;;;6174210;28;20441;-74
2022/05/28 06:23:22;;;;;;;4.07;2.60;;;21.40;51.70;;;;;;6174277;28;20089;-74
2022/05/28 06:26:22;;;;;;;4.30;3.40;;;21.40;51.80;;;;;;6175215;28;20103;-75
2022/05/28 06:29:23;;;;;;;3.88;3.00;;;21.40;51.80;;;;;;6175389;28;20079;-74
2022/05/28 06:32:23;;;;;;;4.85;3.10;;;21.40;51.80;;;;;;6173398;28;20193;-74
2022/05/28 06:35:24;;;;;;;3.90;3.00;;;21.40;51.80;;;;;;6175296;28;20043;-74
2022/05/28 06:38:25;;;;;;;3.58;3.00;;;21.40;51.80;;;;;;6174941;28;20107;-74
2022/05/28 06:41:25;;;;;;;4.10;3.05;;;21.40;51.70;;;;;;6175325;28;20054;-74
2022/05/28 06:44:26;;;;;;;3.65;2.65;;;21.40;51.70;;;;;;6174798;28;20039;-74
2022/05/28 06:47:27;;;;;;;4.57;2.83;;;21.40;51.80;;;;;;6174908;28;20054;-75
2022/05/28 06:53:48;;;;;;;4.13;3.10;;;21.40;51.80;;;;;;6191140;28;20018;-74
2022/05/28 06:56:49;;;;;;;3.35;2.63;;;21.40;51.70;;;;;;6191923;28;20041;-74
2022/05/28 06:59:50;;;;;;;4.63;2.60;;;21.30;51.50;;;;;;6197955;28;20519;-74
2022/05/28 07:02:50;;;;;;;4.43;2.80;;;21.30;50.30;;;;;;6197848;28;20037;-74
2022/05/28 07:05:51;;;;;;;3.92;2.28;;;21.30;50.20;;;;;;6197800;28;20059;-74
2022/05/28 07:08:51;;;;;;;3.58;2.47;;;21.30;49.90;;;;;;6197858;28;20030;-74
2022/05/28 07:11:51;;;;;;;4.85;2.60;;;21.40;50.00;;;;;;6197522;28;20640;-74
2022/05/28 07:14:52;;;;;;;4.15;2.45;;;21.30;49.80;;;;;;6196886;28;20026;-75
2022/05/28 07:17:52;;;;;;;3.13;2.45;;;21.30;50.20;;;;;;6154171;28;20026;-74
2022/05/28 07:20:53;;;;;;;4.32;2.70;;;21.40;50.50;;;;;;6175276;28;20022;-74
2022/05/28 07:23:55;;;;;;;3.03;2.25;;;21.40;50.70;;;;;;6189785;28;20113;-74
2022/05/28 07:26:56;;;;;;;4.43;2.80;;;21.30;50.90;;;;;;6183547;28;20022;-74
2022/05/28 07:29:56;;;;;;;3.67;2.72;;;21.30;51.10;;;;;;6184481;28;20649;-74
2022/05/28 07:32:57;;;;;;;4.32;2.30;;;21.40;51.20;;;;;;6170638;28;20051;-75
2022/05/28 07:35:59;;;;;;;3.28;2.25;;;21.40;51.40;;;;;;6171006;28;20047;-74
2022/05/28 07:38:59;;;;;;;4.90;2.55;;;21.40;51.40;;;;;;6171119;28;20113;-74
2022/05/28 07:42:04;;;;;;;5.30;2.75;;;21.30;51.40;;;;;;6178396;28;20022;-75
2022/05/28 07:45:04;;;;;;;3.40;2.03;;;21.40;51.50;;;;;;6195894;28;20073;-74
2022/05/28 07:48:06;;;;;;;3.70;2.25;;;21.30;51.40;;;;;;6177726;28;20088;-75
2022/05/28 07:51:06;;;;;;;4.28;2.60;;;21.40;51.50;;;;;;6151705;28;20425;-75
2022/05/28 07:54:07;;;;;;;3.80;2.50;;;21.30;51.50;;;;;;6171462;28;20041;-74
2022/05/28 07:57:08;;;;;;;3.22;2.40;;;21.30;51.50;;;;;;6173613;28;20118;-74
2022/05/28 08:00:09;;;;;;;3.88;2.63;;;21.40;51.60;;;;;;6169596;28;20041;-74
2022/05/28 08:03:10;;;;;;;3.25;2.28;;;21.40;51.60;;;;;;6161643;28;20031;-74
2022/05/28 08:06:11;;;;;;;3.88;2.42;;;21.40;51.60;;;;;;6168975;28;20505;-75
2022/05/28 08:09:12;;;;;;;3.92;2.53;;;21.40;51.60;;;;;;6149150;28;20167;-75
2022/05/28 08:12:12;;;;;;;3.63;2.55;;;21.40;51.70;;;;;;6168205;28;20567;-74
2022/05/28 08:15:13;;;;;;;3.22;2.30;;;21.40;51.70;;;;;;6168521;28;20026;-74
2022/05/28 08:18:16;;;;;;;3.90;2.58;;;21.40;51.70;;;;;;6169874;28;20081;-74
2022/05/28 08:24:37;;;;;;;3.10;2.25;;;21.40;51.70;;;;;;6167611;28;20038;-75
2022/05/28 08:27:38;;;;;;;3.45;2.28;;;21.40;51.70;;;;;;6192634;28;20083;-75
2022/05/28 08:30:39;;;;;;;2.85;2.08;;;21.40;51.70;;;;;;6170486;28;20100;-75
2022/05/28 08:33:40;;;;;;;3.05;2.40;;;21.40;51.70;;;;;;6172571;28;20144;-74
2022/05/28 08:36:40;;;;;;;3.50;2.70;;;21.40;51.80;;;;;;6192250;28;20133;-74
2022/05/28 08:39:41;;;;;;;2.92;2.28;;;21.30;51.70;;;;;;6185105;28;20049;-74
2022/05/28 08:42:42;;;;;;;3.33;2.40;;;21.40;51.80;;;;;;6183920;28;20053;-74
2022/05/28 08:45:50;;;;;;;3.13;2.40;;;21.40;51.70;;;;;;6162795;28;20201;-73
2022/05/28 08:48:53;;;;;;;3.47;2.60;;;21.40;51.90;;;;;;6187478;28;20057;-74
2022/05/28 08:52:05;;;;;;;2.78;2.25;;;21.40;51.80;;;;;;6174186;28;20031;-74
2022/05/28 08:55:13;;;;;;;2.45;2.10;;;21.40;51.90;;;;;;6174405;28;20123;-75
2022/05/28 08:58:17;;;;;;;3.28;2.33;;;21.40;51.80;;;;;;6192140;28;20024;-75
2022/05/28 09:01:21;;;;;;;3.10;2.30;;;21.40;51.90;;;;;;6191399;28;20029;-74
2022/05/28 09:04:26;;;;;;;2.92;2.13;;;21.40;51.80;;;;;;6181658;28;20034;-74
2022/05/28 09:07:26;;;;;;;3.40;2.03;;;21.40;51.80;;;;;;6191006;28;20370;-74
2022/05/28 09:10:35;;;;;;;3.17;2.42;;;21.40;51.90;;;;;;6192826;28;20038;-74
2022/05/28 09:13:44;;;;;;;2.50;1.90;;;21.40;51.90;;;;;;6178881;28;20026;-74
2022/05/28 09:16:46;;;;;;;3.00;2.30;;;21.40;51.90;;;;;;6193410;28;20026;-74
2022/05/28 09:19:48;;;;;;;2.70;2.25;;;21.40;51.90;;;;;;6190430;28;20026;-74
2022/05/28 09:22:49;;;;;;;3.70;2.30;;;21.40;51.80;;;;;;6190347;28;20492;-74
2022/05/28 09:25:49;;;;;;;3.13;2.15;;;21.40;51.90;;;;;;6160327;28;20035;-74
2022/05/28 09:29:08;;;;;;;2.88;2.20;;;21.40;51.90;;;;;;6173475;28;20421;-74
2022/05/28 09:32:28;;;;;;;3.25;2.30;;;21.30;51.90;;;;;;6173447;28;20092;-74
2022/05/28 09:35:53;;;;;;;3.08;2.38;;;21.40;51.90;;;;;;6191755;28;20022;-74
2022/05/28 09:39:25;;;;;;;2.42;1.95;;;21.40;51.90;;;;;;6174415;28;20076;-74
2022/05/28 09:42:49;;;;;;;2.97;2.22;;;21.30;51.90;;;;;;6191079;28;20038;-73
2022/05/28 09:46:01;;;;;;;2.50;1.95;;;21.40;51.90;;;;;;6191230;28;20502;-75
2022/05/28 09:49:15;;;;;;;2.78;2.15;;;21.30;51.90;;;;;;6191426;28;20045;-74
2022/05/28 09:52:21;;;;;;;2.90;2.13;;;21.40;51.90;;;;;;6166831;28;20645;-74
2022/05/28 09:55:23;;;;;;;2.50;2.05;;;21.40;51.90;;;;;;6167252;28;20432;-74
2022/05/28 09:58:28;;;;;;;1.95;1.73;;;21.40;52.00;;;;;;6151763;28;20042;-74
2022/05/28 10:01:28;;;;;;;5.32;2.30;;;21.30;51.90;;;;;;6151128;28;20062;-74
2022/05/28 10:04:30;;;;;;;2.67;1.92;;;21.40;52.00;;;;;;6167774;28;20045;-74
2022/05/28 10:07:52;;;;;;;3.03;2.30;;;21.40;52.00;;;;;;6168588;28;20026;-74
2022/05/28 10:10:55;;;;;;;3.30;2.08;;;21.40;52.00;;;;;;6166337;28;20041;-74
2022/05/28 10:14:00;;;;;;;2.78;2.03;;;21.40;52.00;;;;;;6174423;28;20034;-74
2022/05/28 10:17:04;;;;;;;3.28;2.30;;;21.30;51.90;;;;;;6191283;28;20655;-74
2022/05/28 10:20:19;;;;;;;3.20;2.20;;;21.30;51.90;;;;;;6190056;28;20026;-75
2022/05/28 10:23:21;;;;;;;2.10;1.90;;;21.40;52.70;;;;;;6191547;28;20054;-75
2022/05/28 10:26:30;;;;;;;2.15;1.73;;;21.40;52.00;;;;;;6191462;28;20085;-76
2022/05/28 10:29:42;;;;;;;2.50;2.05;;;21.40;52.20;;;;;;6176295;28;20492;-76
2022/05/28 10:32:49;;;;;;;3.13;2.00;;;21.40;51.90;;;;;;6171544;28;20497;-76
2022/05/28 10:35:51;;;;;;;3.42;2.08;;;21.40;51.70;;;;;;6171803;28;20520;-75
2022/05/28 10:38:52;;;;;;;3.25;1.92;;;21.40;51.80;;;;;;6171578;28;20118;-75
2022/05/28 10:41:53;;;;;;;3.47;2.25;;;21.40;51.90;;;;;;6153666;28;20061;-74
2022/05/28 10:44:56;;;;;;;2.85;1.90;;;21.40;51.80;;;;;;6171448;28;20422;-75
2022/05/28 10:48:09;;;;;;;3.53;2.05;;;21.40;51.80;;;;;;6171356;28;20049;-75
2022/05/28 10:51:40;;;;;;;2.40;1.80;;;21.40;51.90;;;;;;6170318;28;20023;-75
2022/05/28 10:54:45;;;;;;;2.13;1.70;;;21.40;51.90;;;;;;6194652;28;20385;-74
2022/05/28 10:58:15;;;;;;;4.05;1.83;;;21.40;51.90;;;;;;6179730;28;20443;-75
2022/05/28 11:01:37;;;;;;;3.17;1.80;;;21.40;52.00;;;;;;6196474;28;20081;-74
2022/05/28 11:04:41;;;;;;;2.33;1.92;;;21.30;51.90;;;;;;6178407;28;20063;-75
2022/05/28 11:08:05;;;;;;;1.98;1.75;;;21.40;51.90;;;;;;6168975;28;20398;-75
2022/05/28 11:11:24;;;;;;;2.65;1.77;;;21.40;52.00;;;;;;6171944;28;20042;-75
2022/05/28 11:14:58;;;;;;;2.53;1.80;;;21.40;52.00;;;;;;6182829;28;20031;-75
2022/05/28 11:18:11;;;;;;;2.28;1.77;;;21.30;51.90;;;;;;6175287;28;20114;-74
2022/05/28 11:21:23;;;;;;;2.58;1.90;;;21.40;52.00;;;;;;6171456;28;20110;-74
2022/05/28 11:24:29;;;;;;;3.58;2.08;;;21.40;52.00;;;;;;6172073;28;20039;-75
2022/05/28 11:27:45;;;;;;;3.13;2.05;;;21.30;51.90;;;;;;6153677;28;20035;-74
2022/05/28 11:30:50;;;;;;;2.35;1.83;;;21.40;52.00;;;;;;6174964;28;20106;-74
2022/05/28 11:33:52;;;;;;;3.65;2.30;;;21.30;51.90;;;;;;6178048;28;20054;-74
2022/05/28 11:37:06;;;;;;;2.28;1.60;;;21.40;52.00;;;;;;6185301;28;20556;-74
2022/05/28 11:40:28;;;;;;;3.20;1.80;;;21.40;52.00;;;;;;6195996;28;20037;-74
2022/05/28 11:43:40;;;;;;;1.85;1.40;;;21.40;52.00;;;;;;6195469;28;20113;-75
2022/05/28 11:47:01;;;;;;;2.47;1.88;;;21.40;52.00;;;;;;6195949;28;20065;-75
2022/05/28 11:53:56;;;;;;;1.73;1.40;;;21.40;52.10;;;;;;6197083;28;20614;-76
2022/05/28 11:57:00;;;;;;;2.80;2.10;;;21.40;52.00;;;;;;6183051;28;20026;-74
2022/05/28 12:00:03;;;;;;;2.90;1.85;;;21.30;51.90;;;;;;6155303;28;20023;-74
2022/05/28 12:03:18;;;;;;;2.45;1.80;;;21.30;51.90;;;;;;6169342;28;20092;-75
2022/05/28 12:06:26;;;;;;;2.13;1.60;;;21.40;52.10;;;;;;6155364;28;20386;-75
2022/05/28 12:09:33;;;;;;;2.60;1.90;;;21.30;51.90;;;;;;6172309;28;20486;-74
2022/05/28 12:12:51;;;;;;;2.70;1.80;;;21.30;51.90;;;;;;6100206;29;20028;-75
2022/05/28 12:16:07;;;;;;;2.03;1.58;;;21.30;51.90;;;;;;6082626;29;20040;-75
2022/05/28 12:19:13;;;;;;;3.95;2.30;;;21.30;52.00;;;;;;6098364;29;20028;-74
2022/05/28 12:22:28;;;;;;;2.70;2.05;;;21.30;52.00;;;;;;6114429;29;20055;-75
2022/05/28 12:25:29;;;;;;;2.63;1.77;;;21.30;51.90;;;;;;6113788;29;20107;-75
2022/05/28 12:28:44;;;;;;;2.05;1.58;;;21.40;52.00;;;;;;6113516;29;20036;-74
2022/05/28 12:31:44;;;;;;;2.38;1.70;;;21.40;52.00;;;;;;6096704;29;20055;-75
2022/05/28 12:34:54;;;;;;;2.47;1.80;;;21.40;51.90;;;;;;6120984;29;20183;-74
2022/05/28 12:38:18;;;;;;;3.17;1.90;;;21.40;52.00;;;;;;6121479;29;20550;-74
2022/05/28 12:41:23;;;;;;;2.87;1.67;;;21.40;51.90;;;;;;6105399;29;20090;-75
2022/05/28 12:44:24;;;;;;;2.60;1.77;;;21.40;51.90;;;;;;6165285;28;20134;-75
2022/05/28 12:47:29;;;;;;;2.65;1.80;;;21.40;51.90;;;;;;6171766;28;20054;-74
2022/05/28 12:50:59;;;;;;;3.05;1.80;;;21.40;52.00;;;;;;6172069;28;20022;-75
2022/05/28 12:54:03;;;;;;;2.83;1.83;;;21.40;52.00;;;;;;6154029;28;20433;-75
2022/05/28 12:57:29;;;;;;;2.42;1.60;;;21.40;52.00;;;;;;6171966;28;20101;-76
2022/05/28 13:00:46;;;;;;;2.38;1.70;;;21.30;51.90;;;;;;6154268;28;20035;-74
2022/05/28 13:03:49;;;;;;;2.10;1.63;;;21.40;52.00;;;;;;6153763;28;20382;-74
2022/05/28 13:06:55;;;;;;;2.25;1.73;;;21.30;51.90;;;;;;6171006;28;20055;-74
2022/05/28 13:10:24;;;;;;;2.85;2.00;;;21.30;51.90;;;;;;6171203;28;20422;-74
2022/05/28 13:13:27;;;;;;;2.42;1.80;;;21.40;52.00;;;;;;6154026;28;20049;-74
2022/05/28 13:16:56;;;;;;;1.98;1.65;;;21.40;52.00;;;;;;6153663;28;20041;-75
2022/05/28 13:20:22;;;;;;;1.80;1.45;;;21.30;51.90;;;;;;6171138;28;20049;-75
2022/05/28 13:23:44;;;;;;;1.75;1.50;;;21.30;51.90;;;;;;6171282;28;20038;-74
2022/05/28 13:27:02;;;;;;;2.28;1.92;;;21.40;52.00;;;;;;6171502;28;20023;-74
2022/05/28 13:30:09;;;;;;;3.33;2.00;;;21.30;51.90;;;;;;6168556;28;20031;-74
2022/05/28 13:33:14;;;;;;;2.38;1.70;;;21.30;52.00;;;;;;6169430;28;20066;-75
2022/05/28 13:36:16;;;;;;;1.95;1.75;;;21.30;52.00;;;;;;6169876;28;20023;-74
2022/05/28 13:39:17;;;;;;;2.33;1.73;;;21.30;51.90;;;;;;6170066;28;20018;-75
2022/05/28 13:42:19;;;;;;;2.15;1.70;;;21.40;52.00;;;;;;6169724;28;20501;-74
2022/05/28 13:45:23;;;;;;;2.33;1.73;;;21.30;51.90;;;;;;6173744;28;20042;-75
2022/05/28 13:48:26;;;;;;;2.00;1.60;;;21.30;51.90;;;;;;6193549;28;20034;-74
2022/05/28 13:51:28;;;;;;;2.20;1.60;;;21.30;51.90;;;;;;6193827;28;20034;-74
2022/05/28 13:54:29;;;;;;;2.50;1.80;;;21.30;51.90;;;;;;6195147;28;20389;-74
2022/05/28 13:57:41;;;;;;;2.83;1.77;;;21.40;52.00;;;;;;6194922;28;20031;-75
2022/05/28 14:00:42;;;;;;;2.17;1.58;;;21.30;51.90;;;;;;6195123;28;20069;-75
2022/05/28 14:03:42;;;;;;;2.58;1.83;;;21.30;51.90;;;;;;6194822;28;20086;-75
2022/05/28 14:06:54;;;;;;;1.83;1.60;;;21.30;51.90;;;;;;6182294;28;20049;-74
2022/05/28 14:09:55;;;;;;;2.92;1.70;;;21.30;51.90;;;;;;6199787;28;20029;-75
2022/05/28 14:12:55;;;;;;;2.00;1.42;;;21.30;51.90;;;;;;6176179;28;20643;-74
2022/05/28 14:15:58;;;;;;;2.05;1.60;;;21.30;51.90;;;;;;6175317;28;20385;-75
2022/05/28 14:19:01;;;;;;;2.13;1.80;;;21.30;51.90;;;;;;6174934;28;20033;-75
2022/05/28 14:22:05;;;;;;;3.05;2.03;;;21.30;51.90;;;;;;6157551;28;20035;-75
2022/05/28 14:25:10;;;;;;;2.03;1.55;;;21.30;52.00;;;;;;6174604;28;20047;-75
2022/05/28 14:28:16;;;;;;;2.22;1.85;;;21.30;52.00;;;;;;6157303;28;20562;-74
2022/05/28 14:31:19;;;;;;;3.00;1.80;;;21.30;52.00;;;;;;6174027;28;20094;-75
2022/05/28 14:34:22;;;;;;;2.25;1.80;;;21.30;52.00;;;;;;6157112;28;20055;-74
2022/05/28 14:37:27;;;;;;;2.80;2.00;;;21.30;52.00;;;;;;6174633;28;20111;-73
2022/05/28 14:40:29;;;;;;;3.13;1.75;;;21.30;52.00;;;;;;6160757;28;20031;-74
2022/05/28 14:43:33;;;;;;;2.28;1.63;;;21.30;52.00;;;;;;6198336;28;20042;-75
2022/05/28 14:46:40;;;;;;;1.90;1.58;;;21.30;52.10;;;;;;6181513;28;20035;-74
2022/05/28 14:49:50;;;;;;;1.85;1.58;;;21.30;52.10;;;;;;6197329;28;20030;-75
2022/05/28 14:52:50;;;;;;;2.03;1.55;;;21.30;52.00;;;;;;6197098;28;20463;-75
2022/05/28 14:55:51;;;;;;;2.60;1.67;;;21.30;52.10;;;;;;6196113;28;20050;-75
2022/05/28 14:58:53;;;;;;;1.98;1.50;;;21.30;52.10;;;;;;6196810;28;20100;-75
2022/05/28 15:01:54;;;;;;;1.73;1.48;;;21.30;52.10;;;;;;6197188;28;20275;-75
2022/05/28 15:05:12;;;;;;;2.22;1.65;;;21.30;52.10;;;;;;6179014;28;20516;-75
2022/05/28 15:08:28;;;;;;;2.00;1.38;;;21.30;52.10;;;;;;6191169;28;20406;-74
2022/05/28 15:11:31;;;;;;;1.77;1.42;;;21.30;52.10;;;;;;6172382;28;20457;-75
2022/05/28 15:14:33;;;;;;;1.90;1.55;;;21.30;52.80;;;;;;6169891;28;20023;-75
2022/05/28 15:17:35;;;;;;;2.00;1.40;;;21.30;52.40;;;;;;6154980;28;20027;-74
2022/05/28 15:20:36;;;;;;;1.38;1.27;;;21.30;52.20;;;;;;6156096;28;20061;-75
2022/05/28 15:23:36;;;;;;;1.50;1.30;;;21.30;52.10;;;;;;6171158;28;20031;-74
2022/05/28 15:26:40;;;;;;;1.92;1.40;;;21.30;52.10;;;;;;6172633;28;20061;-75
2022/05/28 15:29:41;;;;;;;1.83;1.65;;;21.30;52.20;;;;;;6187946;28;20465;-75
2022/05/28 15:32:42;;;;;;;1.40;1.10;;;21.30;52.20;;;;;;6195983;28;20050;-75
2022/05/28 15:39:02;;;;;;;2.22;1.42;;;21.30;52.20;;;;;;6196688;28;20493;-75
2022/05/28 15:42:03;;;;;;;2.42;1.60;;;21.30;52.20;;;;;;6195643;28;20037;-75
2022/05/28 15:45:21;;;;;;;2.15;1.40;;;21.30;52.20;;;;;;6195850;28;20049;-75
2022/05/28 15:48:21;;;;;;;1.70;1.35;;;21.30;52.20;;;;;;6192953;28;20034;-75
2022/05/28 15:51:22;;;;;;;2.45;1.80;;;21.30;52.20;;;;;;6178630;28;20049;-75
2022/05/28 15:54:22;;;;;;;1.92;1.42;;;21.30;52.20;;;;;;6194366;28;20030;-74
2022/05/28 15:57:23;;;;;;;2.25;1.67;;;21.30;52.20;;;;;;6195832;28;20674;-75
2022/05/28 16:00:24;;;;;;;2.75;1.60;;;21.30;52.20;;;;;;6196272;28;20038;-75
2022/05/28 16:03:24;;;;;;;2.33;1.63;;;21.30;52.20;;;;;;6195433;28;20042;-74
2022/05/28 16:06:26;;;;;;;1.80;1.50;;;21.30;52.20;;;;;;6195722;28;20030;-74
2022/05/28 16:09:26;;;;;;;2.03;1.67;;;21.30;52.30;;;;;;6194043;28;20030;-74
2022/05/28 16:12:27;;;;;;;2.17;1.40;;;21.30;52.20;;;;;;6196818;28;20516;-74
2022/05/28 16:15:28;;;;;;;2.20;1.27;;;21.30;52.20;;;;;;6196321;28;20424;-75
2022/05/28 16:18:29;;;;;;;1.65;1.20;;;21.30;52.20;;;;;;6197064;28;20073;-75